createdAt,value
2017-12-16T00:01:44.494Z,28.05
2017-12-16T00:04:12.011Z,28.12
2017-12-16T00:06:39.558Z,30.42
2017-12-16T00:09:07.056Z,28.87
2017-12-16T00:11:34.564Z,27.25
2017-12-16T00:14:02.099Z,27.90
2017-12-16T00:16:29.606Z,29.08
2017-12-16T00:19:00.758Z,29.05
2017-12-16T00:21:28.307Z,28.12
2017-12-16T00:23:55.819Z,28.08
2017-12-16T00:26:24.064Z,28.77
2017-12-16T00:28:51.557Z,29.55
2017-12-16T00:31:19.821Z,30.05
2017-12-16T00:33:48.089Z,29.20
2017-12-16T00:36:15.596Z,29.17
2017-12-16T00:38:43.069Z,31.20
2017-12-16T00:41:10.579Z,30.90
2017-12-16T00:43:38.871Z,30.45
2017-12-16T00:46:06.357Z,29.77
2017-12-16T00:48:33.892Z,30.15
2017-12-16T00:51:01.443Z,32.85
2017-12-16T00:53:29.008Z,32.15
2017-12-16T00:56:11.287Z,30.77
2017-12-16T00:58:38.837Z,31.55
2017-12-16T01:01:06.359Z,28.92
2017-12-16T01:03:33.860Z,31.48
2017-12-16T01:06:01.352Z,33.63
2017-12-16T01:08:28.902Z,32.88
2017-12-16T01:10:57.218Z,32.47
2017-12-16T01:13:24.736Z,31.58
2017-12-16T01:15:53.042Z,32.00
2017-12-16T01:18:20.526Z,33.92
2017-12-16T01:20:48.026Z,34.50
2017-12-16T01:23:16.310Z,35.45
2017-12-16T01:25:43.855Z,32.80
2017-12-16T01:28:12.123Z,33.22
2017-12-16T01:30:39.650Z,33.22
2017-12-16T01:33:07.251Z,33.03
2017-12-16T01:35:47.254Z,34.15
2017-12-16T01:38:26.540Z,31.60
2017-12-16T01:40:55.815Z,32.45
2017-12-16T01:43:23.298Z,32.58
2017-12-16T01:45:59.428Z,34.72
2017-12-16T01:48:26.931Z,34.25
2017-12-16T01:50:54.486Z,34.30
2017-12-16T01:53:21.974Z,33.95
2017-12-16T01:55:49.481Z,36.60
2017-12-16T01:58:17.759Z,37.33
2017-12-16T02:00:46.032Z,35.55
2017-12-16T02:03:13.543Z,36.83
2017-12-16T02:05:41.051Z,38.08
2017-12-16T02:08:09.367Z,34.70
2017-12-16T02:10:36.852Z,37.65
2017-12-16T02:13:04.351Z,36.97
2017-12-16T02:15:32.638Z,39.25
2017-12-16T02:18:00.169Z,37.63
2017-12-16T02:20:28.503Z,36.25
2017-12-16T02:22:56.825Z,40.55
2017-12-16T02:25:24.326Z,36.47
2017-12-16T02:27:51.818Z,39.58
2017-12-16T02:30:19.351Z,39.72
2017-12-16T02:32:46.844Z,39.70
2017-12-16T02:35:14.349Z,38.85
2017-12-16T02:37:41.850Z,40.53
2017-12-16T02:40:09.386Z,40.40
2017-12-16T02:42:43.611Z,42.05
2017-12-16T02:45:11.143Z,42.85
2017-12-16T02:47:38.709Z,43.75
2017-12-16T02:50:06.224Z,41.72
2017-12-16T02:52:37.489Z,39.20
2017-12-16T02:55:05.043Z,40.30
2017-12-16T02:57:33.343Z,41.97
2017-12-16T03:00:17.315Z,42.00
2017-12-16T03:02:44.832Z,40.92
2017-12-16T03:05:19.092Z,44.10
2017-12-16T03:08:05.915Z,40.60
2017-12-16T03:10:43.588Z,43.65
2017-12-16T03:13:11.058Z,38.65
2017-12-16T03:15:38.605Z,41.58
2017-12-16T03:18:06.099Z,40.88
2017-12-16T03:20:33.599Z,45.42
2017-12-16T03:23:01.076Z,45.50
2017-12-16T03:25:28.594Z,46.15
2017-12-16T03:27:57.018Z,41.75
2017-12-16T03:30:24.560Z,44.05
2017-12-16T03:32:52.090Z,42.45
2017-12-16T03:35:20.342Z,40.92
2017-12-16T03:37:47.825Z,41.08
2017-12-16T03:40:16.296Z,42.30
2017-12-16T03:42:43.822Z,40.88
2017-12-16T03:45:11.311Z,46.15
2017-12-16T03:47:52.369Z,42.88
2017-12-16T03:53:27.879Z,44.70
2017-12-16T03:56:14.728Z,43.70
2017-12-16T03:58:42.226Z,41.90
2017-12-16T04:01:09.816Z,45.80
2017-12-16T04:03:37.299Z,40.58
2017-12-16T04:06:04.835Z,46.72
2017-12-16T04:08:32.335Z,48.92
2017-12-16T04:10:59.866Z,45.22
2017-12-16T04:13:27.373Z,44.33
2017-12-16T04:15:54.991Z,43.53
2017-12-16T04:18:22.550Z,40.90
2017-12-16T04:20:50.127Z,44.35
2017-12-16T04:23:17.682Z,45.25
2017-12-16T04:25:45.286Z,44.17
2017-12-16T04:28:21.026Z,41.78
2017-12-16T04:30:48.527Z,41.47
2017-12-16T04:33:16.050Z,41.05
2017-12-16T04:35:43.534Z,41.33
2017-12-16T04:38:12.132Z,35.83
2017-12-16T04:40:39.682Z,34.90
2017-12-16T04:43:07.270Z,34.45
2017-12-16T04:45:34.861Z,37.33
2017-12-16T04:48:02.338Z,41.15
2017-12-16T04:50:36.456Z,36.00
2017-12-16T04:53:04.717Z,39.65
2017-12-16T04:55:32.242Z,37.67
2017-12-16T04:57:59.787Z,34.58
2017-12-16T05:00:27.337Z,35.28
2017-12-16T05:02:55.623Z,33.80
2017-12-16T05:05:23.134Z,36.25
2017-12-16T05:07:51.413Z,34.05
2017-12-16T05:10:19.708Z,32.72
2017-12-16T05:12:58.947Z,32.35
2017-12-16T05:15:26.503Z,31.30
2017-12-16T05:17:54.038Z,29.65
2017-12-16T05:20:21.610Z,34.17
2017-12-16T05:22:49.994Z,32.53
2017-12-16T05:25:17.505Z,29.48
2017-12-16T05:27:53.363Z,32.50
2017-12-16T05:30:20.853Z,28.42
2017-12-16T05:32:49.140Z,27.85
2017-12-16T05:35:17.421Z,28.27
2017-12-16T05:37:44.942Z,26.35
2017-12-16T05:40:12.465Z,28.92
2017-12-16T05:42:40.009Z,24.33
2017-12-16T05:45:07.580Z,26.23
2017-12-16T05:47:35.101Z,24.80
2017-12-16T05:50:03.384Z,27.50
2017-12-16T05:52:31.711Z,26.02
2017-12-16T05:54:59.195Z,22.52
2017-12-16T05:57:26.727Z,18.55
2017-12-16T05:59:54.268Z,16.90
2017-12-16T06:02:21.757Z,13.48
2017-12-16T06:04:49.268Z,9.43
2017-12-16T06:07:16.777Z,8.10
2017-12-16T06:09:44.305Z,8.70
2017-12-16T06:12:11.795Z,8.32
2017-12-16T06:14:39.320Z,7.68
2017-12-16T06:17:07.973Z,7.47
2017-12-16T06:19:37.559Z,7.75
2017-12-16T06:31:00.040Z,7.85
2017-12-16T06:45:36.583Z,9.48
2017-12-16T06:48:21.434Z,9.20
2017-12-16T06:50:49.089Z,7.85
2017-12-16T06:56:13.023Z,8.20
2017-12-16T07:13:50.512Z,9.35
2017-12-16T07:19:31.645Z,8.88
2017-12-16T07:27:44.063Z,8.20
2017-12-16T07:39:20.457Z,8.73
2017-12-16T07:41:59.401Z,10.32
2017-12-16T09:06:20.057Z,2.40
2017-12-16T09:08:48.607Z,1.60
2017-12-16T09:11:27.250Z,1.50
2017-12-16T09:13:54.865Z,1.60
2017-12-16T09:16:22.473Z,1.58
2017-12-16T09:21:45.821Z,1.62
2017-12-16T09:24:16.452Z,1.55
2017-12-16T09:26:43.945Z,2.00
2017-12-16T09:29:11.481Z,2.03
2017-12-16T09:31:38.971Z,1.45
2017-12-16T09:34:06.479Z,1.62
2017-12-16T09:36:34.015Z,2.00
2017-12-16T09:39:01.504Z,1.95
2017-12-16T09:41:29.006Z,1.77
2017-12-16T09:43:56.488Z,1.50
2017-12-16T09:46:23.991Z,2.60
2017-12-16T09:48:51.500Z,2.62
2017-12-16T09:51:19.798Z,1.70
2017-12-16T09:53:47.333Z,2.22
2017-12-16T09:56:14.945Z,3.10
2017-12-16T09:58:42.456Z,2.10
2017-12-16T10:01:09.977Z,2.30
2017-12-16T10:03:37.507Z,2.12
2017-12-16T10:06:04.975Z,1.95
2017-12-16T10:08:32.451Z,1.77
2017-12-16T10:10:59.963Z,1.98
2017-12-16T10:13:28.227Z,2.62
2017-12-16T10:15:56.514Z,1.80
2017-12-16T10:18:24.784Z,1.90
2017-12-16T10:20:53.082Z,1.77
2017-12-16T10:23:20.627Z,1.85
2017-12-16T10:25:48.878Z,1.67
2017-12-16T10:28:16.354Z,1.98
2017-12-16T10:30:44.613Z,1.80
2017-12-16T10:33:12.107Z,1.35
2017-12-16T10:35:39.662Z,1.95
2017-12-16T10:38:07.196Z,1.55
2017-12-16T10:40:34.770Z,1.55
2017-12-16T10:43:03.027Z,1.67
2017-12-16T10:45:30.627Z,1.35
2017-12-16T10:47:58.236Z,1.95
2017-12-16T10:50:25.792Z,2.30
2017-12-16T10:52:53.340Z,2.15
2017-12-16T10:55:20.935Z,2.15
2017-12-16T10:57:48.495Z,1.70
2017-12-16T11:00:18.945Z,1.80
2017-12-16T11:02:47.222Z,1.95
2017-12-16T11:05:14.771Z,1.90
2017-12-16T11:07:42.334Z,2.62
2017-12-16T11:10:09.851Z,2.42
2017-12-16T11:12:43.381Z,1.87
2017-12-16T11:15:11.663Z,2.35
2017-12-16T11:17:40.779Z,2.28
2017-12-16T11:20:08.294Z,1.55
2017-12-16T11:22:35.792Z,1.40
2017-12-16T11:25:03.303Z,1.70
2017-12-16T11:27:30.793Z,1.25
2017-12-16T11:29:59.230Z,1.50
2017-12-16T11:32:26.707Z,1.45
2017-12-16T11:34:54.225Z,1.25
2017-12-16T11:37:21.678Z,1.62
2017-12-16T11:39:49.202Z,1.58
2017-12-16T11:42:16.735Z,2.03
2017-12-16T11:44:44.225Z,1.58
2017-12-16T11:47:12.511Z,1.87
2017-12-16T11:49:40.016Z,1.98
2017-12-16T11:52:07.547Z,1.48
2017-12-16T11:54:35.037Z,2.25
2017-12-16T11:57:02.537Z,1.20
2017-12-16T11:59:30.819Z,1.37
2017-12-16T12:01:58.332Z,1.40
2017-12-16T12:04:25.818Z,2.08
2017-12-16T12:06:54.098Z,1.30
2017-12-16T12:09:22.388Z,1.83
2017-12-16T12:11:50.658Z,1.42
2017-12-16T12:14:18.922Z,1.85
2017-12-16T12:16:46.378Z,1.50
2017-12-16T12:19:13.867Z,1.55
2017-12-16T12:21:41.342Z,1.50
2017-12-16T12:24:08.839Z,1.33
2017-12-16T12:26:36.341Z,1.83
2017-12-16T12:29:03.851Z,1.25
2017-12-16T12:31:31.327Z,1.75
2017-12-16T12:33:58.792Z,1.48
2017-12-16T12:36:27.059Z,1.98
2017-12-16T12:38:54.563Z,1.60
2017-12-16T12:41:22.058Z,1.70
2017-12-16T12:43:49.550Z,1.90
2017-12-16T12:46:17.811Z,2.42
2017-12-16T12:48:45.303Z,1.85
2017-12-16T12:51:12.801Z,1.30
2017-12-16T12:53:40.382Z,1.58
2017-12-16T12:56:07.875Z,1.35
2017-12-16T12:58:35.362Z,1.02
2017-12-16T13:01:02.865Z,1.25
2017-12-16T13:03:30.342Z,1.37
2017-12-16T13:05:57.867Z,1.55
2017-12-16T13:08:25.358Z,1.37
2017-12-16T13:10:52.898Z,1.45
2017-12-16T13:13:21.145Z,1.55
2017-12-16T13:15:48.650Z,1.75
2017-12-16T13:18:16.212Z,1.55
2017-12-16T13:20:43.726Z,1.40
2017-12-16T13:23:11.227Z,0.95
2017-12-16T13:25:38.720Z,1.40
2017-12-16T13:28:06.249Z,1.50
2017-12-16T13:30:33.758Z,1.77
2017-12-16T13:33:01.257Z,1.12
2017-12-16T13:35:28.731Z,1.33
2017-12-16T13:37:56.245Z,1.10
2017-12-16T13:40:23.784Z,1.40
2017-12-16T13:42:51.263Z,0.95
2017-12-16T13:45:18.759Z,1.02
2017-12-16T13:47:46.273Z,1.00
2017-12-16T13:50:13.783Z,1.60
2017-12-16T13:52:41.306Z,1.98
2017-12-16T13:55:09.464Z,1.62
2017-12-16T13:57:36.961Z,2.20
2017-12-16T14:00:04.456Z,1.12
2017-12-16T14:02:31.959Z,1.42
2017-12-16T14:04:59.494Z,0.77
2017-12-16T14:07:26.983Z,0.90
2017-12-16T14:09:55.242Z,1.27
2017-12-16T14:12:22.793Z,1.12
2017-12-16T14:14:53.910Z,0.80
2017-12-16T14:17:21.496Z,0.93
2017-12-16T14:19:49.089Z,0.90
2017-12-16T14:22:16.667Z,0.80
2017-12-16T14:24:44.276Z,0.70
2017-12-16T14:27:11.925Z,0.90
2017-12-16T14:29:39.531Z,1.00
2017-12-16T14:32:10.280Z,0.90
2017-12-16T14:34:37.926Z,1.00
2017-12-16T14:37:10.750Z,1.33
2017-12-16T14:39:39.794Z,1.25
2017-12-16T14:42:07.332Z,1.05
2017-12-16T14:44:35.111Z,0.73
2017-12-16T14:47:02.684Z,0.85
2017-12-16T14:49:30.974Z,1.25
2017-12-16T14:51:58.517Z,0.93
2017-12-16T14:54:26.795Z,1.02
2017-12-16T14:56:55.063Z,1.30
2017-12-16T14:59:22.577Z,1.37
2017-12-16T15:01:50.107Z,1.20
2017-12-16T15:04:17.629Z,1.30
2017-12-16T15:06:45.098Z,1.45
2017-12-16T15:09:13.349Z,1.00
2017-12-16T15:11:40.860Z,1.95
2017-12-16T15:14:08.415Z,1.17
2017-12-16T15:16:35.936Z,1.00
2017-12-16T15:19:03.528Z,1.30
2017-12-16T15:21:32.326Z,1.45
2017-12-16T15:23:59.918Z,1.20
2017-12-16T15:26:27.473Z,1.40
2017-12-16T15:28:55.011Z,1.00
2017-12-16T15:31:22.561Z,1.15
2017-12-16T15:33:50.214Z,1.10
2017-12-16T15:36:18.488Z,1.35
2017-12-16T15:38:47.493Z,0.90
2017-12-16T15:41:15.039Z,1.12
2017-12-16T15:43:43.364Z,1.30
2017-12-16T15:46:10.924Z,1.20
2017-12-16T15:48:38.493Z,1.20
2017-12-16T15:51:12.399Z,1.10
2017-12-16T15:53:39.898Z,1.60
2017-12-16T15:56:07.391Z,1.30
2017-12-16T15:58:34.886Z,2.03
2017-12-16T16:01:02.391Z,2.10
2017-12-16T16:03:29.926Z,1.37
2017-12-16T16:05:58.296Z,1.20
2017-12-16T16:08:25.828Z,1.60
2017-12-16T16:10:53.387Z,1.33
2017-12-16T16:15:34.893Z,1.20
2017-12-16T16:18:02.413Z,1.02
2017-12-16T16:20:29.944Z,1.27
2017-12-16T16:22:57.496Z,1.23
2017-12-16T16:25:25.840Z,1.30
2017-12-16T16:27:53.402Z,1.52
2017-12-16T16:30:20.956Z,1.35
2017-12-16T16:32:48.515Z,1.40
2017-12-16T16:35:16.035Z,1.35
2017-12-16T16:37:43.566Z,1.20
2017-12-16T16:40:11.104Z,1.20
2017-12-16T16:42:38.619Z,1.02
2017-12-16T16:45:06.213Z,1.67
2017-12-16T16:47:33.754Z,1.30
2017-12-16T16:50:01.275Z,1.00
2017-12-16T16:52:29.555Z,1.10
2017-12-16T16:54:57.824Z,1.10
2017-12-16T16:57:25.342Z,1.10
2017-12-16T16:59:52.856Z,1.12
2017-12-16T17:02:21.149Z,1.10
2017-12-16T17:04:48.652Z,1.20
2017-12-16T17:07:16.149Z,1.58
2017-12-16T17:09:44.410Z,1.42
2017-12-16T17:12:11.927Z,1.35
2017-12-16T17:14:40.203Z,1.52
2017-12-16T17:17:07.794Z,1.45
2017-12-16T17:19:35.297Z,1.37
2017-12-16T17:22:02.822Z,1.40
2017-12-16T17:24:30.343Z,1.70
2017-12-16T17:26:57.848Z,1.52
2017-12-16T17:29:25.338Z,1.30
2017-12-16T17:31:52.819Z,1.33
2017-12-16T17:34:20.323Z,1.50
2017-12-16T17:36:48.589Z,1.37
2017-12-16T17:39:16.058Z,1.42
2017-12-16T17:41:44.307Z,1.42
2017-12-16T17:44:11.791Z,1.75
2017-12-16T17:46:40.053Z,1.95
2017-12-16T17:49:07.555Z,1.50
2017-12-16T17:51:35.058Z,1.87
2017-12-16T17:54:02.564Z,1.23
2017-12-16T17:56:30.030Z,1.73
2017-12-16T17:58:57.565Z,1.62
2017-12-16T18:01:25.846Z,1.67
2017-12-16T18:03:53.347Z,2.00
2017-12-16T18:06:20.810Z,1.77
2017-12-16T18:08:51.411Z,1.90
2017-12-16T18:11:18.909Z,1.65
2017-12-16T18:13:46.370Z,2.05
2017-12-16T18:16:13.869Z,2.00
2017-12-16T18:18:41.342Z,2.17
2017-12-16T18:21:16.027Z,1.90
2017-12-16T18:23:54.007Z,2.28
2017-12-16T18:26:21.497Z,1.83
2017-12-16T18:28:49.733Z,1.80
2017-12-16T18:31:17.209Z,1.58
2017-12-16T18:33:44.714Z,3.08
2017-12-16T18:36:12.209Z,2.17
2017-12-16T18:38:39.727Z,1.77
2017-12-16T18:41:07.206Z,2.15
2017-12-16T18:43:34.710Z,2.00
2017-12-16T18:46:02.203Z,2.00
2017-12-16T18:48:29.746Z,1.85
2017-12-16T18:51:04.131Z,1.80
2017-12-16T18:53:31.642Z,1.70
2017-12-16T18:55:59.945Z,2.08
2017-12-16T18:58:27.434Z,2.25
2017-12-16T19:00:54.938Z,1.70
2017-12-16T19:03:26.599Z,1.60
2017-12-16T19:05:54.085Z,1.87
2017-12-16T19:08:23.247Z,1.70
2017-12-16T19:10:50.782Z,2.08
2017-12-16T19:13:19.054Z,2.17
2017-12-16T19:15:46.561Z,2.20
2017-12-16T19:18:14.074Z,2.70
2017-12-16T19:20:41.580Z,3.03
2017-12-16T19:23:15.506Z,2.60
2017-12-16T19:25:43.018Z,2.58
2017-12-16T19:28:10.527Z,2.90
2017-12-16T19:30:38.031Z,2.35
2017-12-16T19:33:06.295Z,3.05
2017-12-16T19:35:34.551Z,2.62
2017-12-16T19:38:02.036Z,2.78
2017-12-16T19:40:30.308Z,2.58
2017-12-16T19:42:58.540Z,2.50
2017-12-16T19:45:26.039Z,2.80
2017-12-16T19:47:54.468Z,3.40
2017-12-16T19:50:21.950Z,2.33
2017-12-16T19:52:52.653Z,2.75
2017-12-16T19:55:20.144Z,2.60
2017-12-16T19:57:50.734Z,3.45
2017-12-16T20:00:18.275Z,3.50
2017-12-16T20:02:52.945Z,2.85
2017-12-16T20:05:23.592Z,2.75
2017-12-16T20:07:51.100Z,2.70
2017-12-16T20:10:18.586Z,2.60
2017-12-16T20:12:46.108Z,3.12
2017-12-16T20:15:14.425Z,2.42
2017-12-16T20:17:41.980Z,2.60
2017-12-16T20:20:09.543Z,2.47
2017-12-16T20:22:37.028Z,3.20
2017-12-16T20:25:04.557Z,3.20
2017-12-16T20:27:32.054Z,2.67
2017-12-16T20:29:59.571Z,3.00
2017-12-16T20:32:27.041Z,3.25
2017-12-16T20:34:54.567Z,2.80
2017-12-16T20:37:22.050Z,2.60
2017-12-16T20:39:49.535Z,2.70
2017-12-16T20:42:17.053Z,3.00
2017-12-16T20:44:44.574Z,3.50
2017-12-16T20:47:12.858Z,3.05
2017-12-16T20:49:41.111Z,2.95
2017-12-16T20:52:08.620Z,3.22
2017-12-16T20:54:36.110Z,2.95
2017-12-16T20:57:03.571Z,3.12
2017-12-16T20:59:31.114Z,3.15
2017-12-16T21:01:58.611Z,2.70
2017-12-16T21:04:26.117Z,3.05
2017-12-16T21:06:53.663Z,2.92
2017-12-16T21:09:21.141Z,3.65
2017-12-16T21:11:48.634Z,2.58
2017-12-16T21:14:16.174Z,2.80
2017-12-16T21:16:43.689Z,2.58
2017-12-16T21:19:11.175Z,2.00
2017-12-16T21:21:39.426Z,1.98
2017-12-16T21:24:06.928Z,1.87
2017-12-16T21:26:34.458Z,2.50
2017-12-16T21:29:01.977Z,2.17
2017-12-16T21:31:29.527Z,2.92
2017-12-16T21:33:57.016Z,2.97
2017-12-16T21:36:24.530Z,2.28
2017-12-16T21:38:52.061Z,2.75
2017-12-16T21:41:19.562Z,2.80
2017-12-16T21:43:47.071Z,2.20
2017-12-16T21:46:14.533Z,2.10
2017-12-16T21:48:42.037Z,2.25
2017-12-16T21:51:09.543Z,1.90
2017-12-16T21:53:37.078Z,2.20
2017-12-16T21:56:05.240Z,2.62
2017-12-16T21:58:34.322Z,2.42
2017-12-16T22:01:02.445Z,2.45
2017-12-16T22:03:30.796Z,2.20
2017-12-16T22:05:58.257Z,2.20
2017-12-16T22:08:25.746Z,1.90
2017-12-16T22:10:53.321Z,3.22
2017-12-16T22:13:23.803Z,2.70
2017-12-16T22:15:51.306Z,3.37
2017-12-16T22:18:18.774Z,2.58
2017-12-16T22:20:46.274Z,2.65
2017-12-16T22:23:19.492Z,2.72
2017-12-16T22:25:46.961Z,2.67
2017-12-16T22:28:14.455Z,2.92
2017-12-16T22:30:41.964Z,2.50
2017-12-16T22:33:09.503Z,3.20
2017-12-16T22:35:37.019Z,3.33
2017-12-16T22:38:04.493Z,6.47
2017-12-16T22:40:32.010Z,3.70
2017-12-16T22:42:59.523Z,3.37
2017-12-16T22:45:27.793Z,3.50
2017-12-16T22:47:55.262Z,3.97
2017-12-16T22:50:22.771Z,4.00
2017-12-16T22:52:50.290Z,3.65
2017-12-16T22:55:17.745Z,3.78
2017-12-16T22:57:45.278Z,4.00
2017-12-16T23:00:18.697Z,4.15
2017-12-16T23:02:46.269Z,4.10
2017-12-16T23:05:13.773Z,3.70
2017-12-16T23:07:41.259Z,3.53
2017-12-16T23:10:09.607Z,4.30
2017-12-16T23:12:37.103Z,3.70
2017-12-16T23:15:05.355Z,3.95
2017-12-16T23:17:32.860Z,4.18
2017-12-16T23:20:00.362Z,3.45
2017-12-16T23:22:27.846Z,3.67
2017-12-16T23:24:56.083Z,3.53
2017-12-16T23:27:29.598Z,3.50
2017-12-16T23:29:57.093Z,4.55
2017-12-16T23:32:24.571Z,4.45
2017-12-16T23:34:52.067Z,4.12
2017-12-16T23:37:19.563Z,3.75
2017-12-16T23:39:47.065Z,3.90
2017-12-16T23:42:14.557Z,4.57
2017-12-16T23:44:42.039Z,5.75
2017-12-16T23:47:10.318Z,3.50
2017-12-16T23:49:38.584Z,3.22
2017-12-16T23:52:06.825Z,3.17
2017-12-16T23:54:34.334Z,3.00
2017-12-16T23:57:01.874Z,3.20
2017-12-16T23:59:30.145Z,2.60
